Sealady — 9HA4184 — position and weather

sailwx.info

Track history (hours):
 
Tides and Currents Weather Stations Pressure Air Temp Water Temp Dewpoint Dewpoint Depression Visibility Wind Speed Wind Dir Waves Ship Positions

Sealady

Last reported at 2018-May-10 12:35 UTC. Time now 2018-Jun-20 15:18 UTC.
Position S 29°25' E 031°51'.
Warning: this ship's position is 41 days out of date.

Length 200 m; draft 12 m.

Type: Cargo ship. MMSI: 249284000.

Date/timePositionNaut miles runAvg speedWind from/ knotsBaromVisibWave heightAir tempDewpointWater temp
2018-May-10 12:35S 29°25' E 031°51'113.8
2018-May-10 12:29S 29°26' E 031°50'713.7
2018-May-10 12:00S 29°31' E 031°45'713.9
2018-May-10 11:30S 29°36' E 031°39'713.7
2018-May-10 11:00S 29°40' E 031°33'713.7
2018-May-10 10:30S 29°43' E 031°26'713.6
2018-May-10 10:00S 29°47' E 031°19'612.3
2018-May-10 09:30S 29°50' E 031°13'3 6.6
2018-May-10 09:00S 29°52' E 031°10'1 2.1
2018-May-10 08:30S 29°52' E 031°09'1 2.1
2018-May-10 08:00S 29°52' E 031°08'1 1.1
2018-May-10 07:30S 29°53' E 031°08'2 4.1
2018-May-10 07:00S 29°53' E 031°10'0 0.4
2018-May-10 06:30S 29°53' E 031°11'0 0.5
2018-May-10 06:00S 29°53' E 031°11'1 1.1
2018-May-10 05:30S 29°54' E 031°11'0 0.6
2018-May-10 05:00S 29°54' E 031°10'0 0.4
2018-May-10 04:30S 29°54' E 031°10'1 2.6
2018-May-10 04:00S 29°55' E 031°11'2 4.7
2018-May-10 03:30S 29°58' E 031°11'2 4.7
2018-May-10 03:00S 29°60' E 031°12'2 4.8
2018-May-10 02:30S 30°02' E 031°12'3 5.2
2018-May-10 02:00S 30°05' E 031°12'2 5.0
2018-May-10 01:30S 30°07' E 031°12'2 4.7
2018-May-10 01:00S 30°10' E 031°12'2 5.0
2018-May-10 00:30S 30°12' E 031°12'3 5.6
2018-May-10 00:00S 30°15' E 031°12'3 5.8
2018-May-09 23:30S 30°18' E 031°12'3 5.8
2018-May-09 23:00S 30°21' E 031°12'5 5.6
2018-May-09 22:02S 30°26' E 031°11'1 5.2
2018-May-09 21:52S 30°27' E 031°11'2 5.2
2018-May-09 21:30S 30°29' E 031°10'3 5.3
2018-May-09 20:55S 30°31' E 031°08'48 4.5
2018-May-09 10:03S 31°16' E 030°47'411.0
2018-May-09 09:40S 31°20' E 030°44'710.9
2018-May-09 09:03S 31°25' E 030°39'010.7
2018-May-09 09:00S 31°25' E 030°38'  
Track history (hours):
 
Tides and Currents Weather Stations Pressure Air Temp Water Temp Dewpoint Dewpoint Depression Visibility Wind Speed Wind Dir Waves Ship Positions

Sealady

Last reported at 2018-May-10 12:35 UTC. Time now 2018-Jun-20 15:18 UTC.
Position S 29°25' E 031°51'.
Warning: this ship's position is 41 days out of date.

Length 200 m; draft 12 m.

Type: Cargo ship. MMSI: 249284000.

Date/timePositionNaut miles runAvg speedWind from/ knotsBaromVisibWave heightAir tempDewpointWater temp
2018-May-10 12:35S 29°25' E 031°51'113.8
2018-May-10 12:29S 29°26' E 031°50'713.7
2018-May-10 12:00S 29°31' E 031°45'713.9
2018-May-10 11:30S 29°36' E 031°39'713.7
2018-May-10 11:00S 29°40' E 031°33'713.7
2018-May-10 10:30S 29°43' E 031°26'713.6
2018-May-10 10:00S 29°47' E 031°19'612.3
2018-May-10 09:30S 29°50' E 031°13'3 6.6
2018-May-10 09:00S 29°52' E 031°10'1 2.1
2018-May-10 08:30S 29°52' E 031°09'1 2.1
2018-May-10 08:00S 29°52' E 031°08'1 1.1
2018-May-10 07:30S 29°53' E 031°08'2 4.1
2018-May-10 07:00S 29°53' E 031°10'0 0.4
2018-May-10 06:30S 29°53' E 031°11'0 0.5
2018-May-10 06:00S 29°53' E 031°11'1 1.1
2018-May-10 05:30S 29°54' E 031°11'0 0.6
2018-May-10 05:00S 29°54' E 031°10'0 0.4
2018-May-10 04:30S 29°54' E 031°10'1 2.6
2018-May-10 04:00S 29°55' E 031°11'2 4.7
2018-May-10 03:30S 29°58' E 031°11'2 4.7
2018-May-10 03:00S 29°60' E 031°12'2 4.8
2018-May-10 02:30S 30°02' E 031°12'3 5.2
2018-May-10 02:00S 30°05' E 031°12'2 5.0
2018-May-10 01:30S 30°07' E 031°12'2 4.7
2018-May-10 01:00S 30°10' E 031°12'2 5.0
2018-May-10 00:30S 30°12' E 031°12'3 5.6
2018-May-10 00:00S 30°15' E 031°12'3 5.8
2018-May-09 23:30S 30°18' E 031°12'3 5.8
2018-May-09 23:00S 30°21' E 031°12'5 5.6
2018-May-09 22:02S 30°26' E 031°11'1 5.2
2018-May-09 21:52S 30°27' E 031°11'2 5.2
2018-May-09 21:30S 30°29' E 031°10'3 5.3
2018-May-09 20:55S 30°31' E 031°08'48 4.5
2018-May-09 10:03S 31°16' E 030°47'411.0
2018-May-09 09:40S 31°20' E 030°44'710.9
2018-May-09 09:03S 31°25' E 030°39'010.7
2018-May-09 09:00S 31°25' E 030°38'  

Dump ship's entire track history